Denver (DEN/KDEN)

Information

Location
Denver, CO
Local Time
18:13 / 6:13 pm
GMT Time
00:13 / 12:13 am
Gates
Unassigned
No FAA reported delays
METAR KDEN 222353Z 33005KT 10SM SCT110 BKN140 BKN220 20/01 A2983 RMK AO2 SLP057 T02000011 10217 20150 56010
TAF KDEN 222338Z 2300/2406 32011KT P6SM FEW100 SCT150 BKN220 FM230230 20010KT P6SM FEW120 BKN220 FM230700 22012KT P6SM SCT220 FM231530 24015G25KT P6SM SCT220 FM231800 23020G35KT P6SM FEW120 SCT220 FM232300 25012G25KT P6SM FEW100 SCT150 BKN220 FM240300 01014G2
  • No charts available